sensor_id;sensor_type;location;lat;lon;timestamp;P1;durP1;ratioP1;P2;durP2;ratioP2
4377;SDS011;2203;53.686;9.994;2022-12-29T00:01:15;4.53;;;2.83;;
4377;SDS011;2203;53.686;9.994;2022-12-29T00:03:41;3.80;;;2.30;;
4377;SDS011;2203;53.686;9.994;2022-12-29T00:06:06;9.63;;;2.97;;
4377;SDS011;2203;53.686;9.994;2022-12-29T00:08:31;4.97;;;2.60;;
4377;SDS011;2203;53.686;9.994;2022-12-29T00:11:07;6.47;;;3.00;;
4377;SDS011;2203;53.686;9.994;2022-12-29T00:13:33;3.83;;;2.67;;
4377;SDS011;2203;53.686;9.994;2022-12-29T00:16:17;3.20;;;2.47;;
4377;SDS011;2203;53.686;9.994;2022-12-29T00:18:42;3.53;;;2.90;;
4377;SDS011;2203;53.686;9.994;2022-12-29T00:21:10;3.73;;;2.10;;
4377;SDS011;2203;53.686;9.994;2022-12-29T00:24:00;4.33;;;2.70;;
4377;SDS011;2203;53.686;9.994;2022-12-29T00:26:44;6.83;;;3.00;;
4377;SDS011;2203;53.686;9.994;2022-12-29T00:29:29;3.10;;;2.50;;
4377;SDS011;2203;53.686;9.994;2022-12-29T00:32:13;4.20;;;2.50;;
4377;SDS011;2203;53.686;9.994;2022-12-29T00:34:57;4.23;;;2.80;;
4377;SDS011;2203;53.686;9.994;2022-12-29T00:37:38;3.83;;;2.60;;
4377;SDS011;2203;53.686;9.994;2022-12-29T00:40:24;6.27;;;2.77;;
4377;SDS011;2203;53.686;9.994;2022-12-29T00:43:08;5.17;;;3.40;;
4377;SDS011;2203;53.686;9.994;2022-12-29T00:45:52;7.40;;;2.77;;
4377;SDS011;2203;53.686;9.994;2022-12-29T00:48:17;4.87;;;2.77;;
4377;SDS011;2203;53.686;9.994;2022-12-29T00:51:03;7.03;;;2.97;;
4377;SDS011;2203;53.686;9.994;2022-12-29T00:53:28;5.03;;;2.93;;
4377;SDS011;2203;53.686;9.994;2022-12-29T00:55:53;5.93;;;2.40;;
4377;SDS011;2203;53.686;9.994;2022-12-29T00:58:19;3.33;;;2.60;;
4377;SDS011;2203;53.686;9.994;2022-12-29T01:00:44;5.70;;;2.60;;
4377;SDS011;2203;53.686;9.994;2022-12-29T01:03:09;5.20;;;2.90;;
4377;SDS011;2203;53.686;9.994;2022-12-29T01:05:36;10.80;;;3.50;;
4377;SDS011;2203;53.686;9.994;2022-12-29T01:08:01;7.40;;;3.20;;
4377;SDS011;2203;53.686;9.994;2022-12-29T01:10:27;4.67;;;3.50;;
4377;SDS011;2203;53.686;9.994;2022-12-29T01:12:52;6.33;;;3.87;;
4377;SDS011;2203;53.686;9.994;2022-12-29T01:15:17;4.20;;;3.30;;
4377;SDS011;2203;53.686;9.994;2022-12-29T01:17:43;6.37;;;3.30;;
4377;SDS011;2203;53.686;9.994;2022-12-29T01:20:09;4.13;;;2.43;;
4377;SDS011;2203;53.686;9.994;2022-12-29T01:22:35;8.83;;;2.70;;
4377;SDS011;2203;53.686;9.994;2022-12-29T01:25:01;3.90;;;3.33;;
4377;SDS011;2203;53.686;9.994;2022-12-29T01:27:26;10.83;;;3.20;;
4377;SDS011;2203;53.686;9.994;2022-12-29T01:29:52;2.10;;;2.00;;
4377;SDS011;2203;53.686;9.994;2022-12-29T01:32:17;2.63;;;2.43;;
4377;SDS011;2203;53.686;9.994;2022-12-29T01:34:43;3.47;;;3.10;;
4377;SDS011;2203;53.686;9.994;2022-12-29T01:37:08;6.97;;;2.80;;
4377;SDS011;2203;53.686;9.994;2022-12-29T01:39:33;6.00;;;2.83;;
4377;SDS011;2203;53.686;9.994;2022-12-29T01:41:59;3.57;;;3.20;;
4377;SDS011;2203;53.686;9.994;2022-12-29T01:47:17;3.50;;;2.63;;
4377;SDS011;2203;53.686;9.994;2022-12-29T01:49:55;4.10;;;3.10;;
4377;SDS011;2203;53.686;9.994;2022-12-29T01:52:23;3.57;;;3.27;;
4377;SDS011;2203;53.686;9.994;2022-12-29T01:54:50;5.90;;;3.20;;
4377;SDS011;2203;53.686;9.994;2022-12-29T01:57:19;4.40;;;3.20;;
4377;SDS011;2203;53.686;9.994;2022-12-29T01:59:49;8.33;;;3.60;;
4377;SDS011;2203;53.686;9.994;2022-12-29T02:02:36;4.17;;;3.77;;
4377;SDS011;2203;53.686;9.994;2022-12-29T02:05:04;4.73;;;3.40;;
4377;SDS011;2203;53.686;9.994;2022-12-29T02:07:34;5.40;;;3.67;;
4377;SDS011;2203;53.686;9.994;2022-12-29T02:09:59;5.20;;;4.07;;
4377;SDS011;2203;53.686;9.994;2022-12-29T02:12:26;6.93;;;3.50;;
4377;SDS011;2203;53.686;9.994;2022-12-29T02:14:54;4.93;;;4.13;;
4377;SDS011;2203;53.686;9.994;2022-12-29T02:36:39;8.33;;;3.53;;
4377;SDS011;2203;53.686;9.994;2022-12-29T02:44:16;3.40;;;3.10;;
4377;SDS011;2203;53.686;9.994;2022-12-29T02:46:49;4.23;;;3.80;;
4377;SDS011;2203;53.686;9.994;2022-12-29T02:52:02;6.70;;;3.50;;
4377;SDS011;2203;53.686;9.994;2022-12-29T02:54:30;5.50;;;4.00;;
4377;SDS011;2203;53.686;9.994;2022-12-29T02:59:46;4.60;;;3.33;;
4377;SDS011;2203;53.686;9.994;2022-12-29T03:02:22;5.77;;;3.47;;
4377;SDS011;2203;53.686;9.994;2022-12-29T03:10:21;3.90;;;3.37;;
4377;SDS011;2203;53.686;9.994;2022-12-29T03:13:07;4.00;;;3.00;;
4377;SDS011;2203;53.686;9.994;2022-12-29T03:16:31;6.03;;;3.67;;
4377;SDS011;2203;53.686;9.994;2022-12-29T03:21:55;5.73;;;3.37;;
4377;SDS011;2203;53.686;9.994;2022-12-29T03:24:42;5.30;;;3.37;;
4377;SDS011;2203;53.686;9.994;2022-12-29T03:27:13;4.37;;;2.70;;
4377;SDS011;2203;53.686;9.994;2022-12-29T03:29:41;12.20;;;3.50;;
4377;SDS011;2203;53.686;9.994;2022-12-29T03:32:11;5.60;;;2.97;;
4377;SDS011;2203;53.686;9.994;2022-12-29T03:34:36;8.80;;;3.47;;
4377;SDS011;2203;53.686;9.994;2022-12-29T03:37:05;4.60;;;3.57;;
4377;SDS011;2203;53.686;9.994;2022-12-29T03:39:33;4.70;;;2.70;;
4377;SDS011;2203;53.686;9.994;2022-12-29T03:42:00;6.10;;;3.33;;
4377;SDS011;2203;53.686;9.994;2022-12-29T03:44:35;7.00;;;3.57;;
4377;SDS011;2203;53.686;9.994;2022-12-29T03:47:01;4.30;;;3.20;;
4377;SDS011;2203;53.686;9.994;2022-12-29T03:49:27;2.93;;;2.73;;
4377;SDS011;2203;53.686;9.994;2022-12-29T03:51:52;3.97;;;2.80;;
4377;SDS011;2203;53.686;9.994;2022-12-29T03:54:17;3.40;;;3.10;;
4377;SDS011;2203;53.686;9.994;2022-12-29T03:56:43;4.67;;;3.40;;
4377;SDS011;2203;53.686;9.994;2022-12-29T03:59:08;7.13;;;3.10;;
4377;SDS011;2203;53.686;9.994;2022-12-29T04:01:34;4.67;;;3.37;;
4377;SDS011;2203;53.686;9.994;2022-12-29T04:03:59;4.07;;;2.83;;
4377;SDS011;2203;53.686;9.994;2022-12-29T04:06:24;3.40;;;2.30;;
4377;SDS011;2203;53.686;9.994;2022-12-29T04:08:50;6.33;;;2.83;;
4377;SDS011;2203;53.686;9.994;2022-12-29T04:11:15;5.93;;;2.60;;
4377;SDS011;2203;53.686;9.994;2022-12-29T04:13:40;5.10;;;2.77;;
4377;SDS011;2203;53.686;9.994;2022-12-29T04:16:06;2.50;;;2.23;;
4377;SDS011;2203;53.686;9.994;2022-12-29T04:18:32;2.40;;;2.20;;
4377;SDS011;2203;53.686;9.994;2022-12-29T04:20:57;3.43;;;2.50;;
4377;SDS011;2203;53.686;9.994;2022-12-29T04:23:29;4.10;;;2.90;;
4377;SDS011;2203;53.686;9.994;2022-12-29T04:25:56;3.97;;;1.93;;
4377;SDS011;2203;53.686;9.994;2022-12-29T04:28:21;6.10;;;2.40;;
4377;SDS011;2203;53.686;9.994;2022-12-29T04:30:47;3.50;;;2.40;;
4377;SDS011;2203;53.686;9.994;2022-12-29T04:33:13;4.70;;;2.30;;
4377;SDS011;2203;53.686;9.994;2022-12-29T04:35:38;5.33;;;2.33;;
4377;SDS011;2203;53.686;9.994;2022-12-29T04:38:04;6.50;;;2.30;;
4377;SDS011;2203;53.686;9.994;2022-12-29T04:40:29;4.83;;;2.00;;
4377;SDS011;2203;53.686;9.994;2022-12-29T04:42:55;2.03;;;1.70;;
4377;SDS011;2203;53.686;9.994;2022-12-29T04:45:20;2.40;;;2.13;;
4377;SDS011;2203;53.686;9.994;2022-12-29T04:47:46;2.10;;;2.00;;
4377;SDS011;2203;53.686;9.994;2022-12-29T04:50:12;2.23;;;1.90;;
4377;SDS011;2203;53.686;9.994;2022-12-29T04:52:37;2.07;;;1.87;;
4377;SDS011;2203;53.686;9.994;2022-12-29T04:55:03;1.77;;;1.43;;
4377;SDS011;2203;53.686;9.994;2022-12-29T04:57:29;5.30;;;1.97;;
4377;SDS011;2203;53.686;9.994;2022-12-29T04:59:55;2.20;;;1.93;;
4377;SDS011;2203;53.686;9.994;2022-12-29T05:02:20;1.77;;;1.67;;
4377;SDS011;2203;53.686;9.994;2022-12-29T05:04:46;3.17;;;1.50;;
4377;SDS011;2203;53.686;9.994;2022-12-29T05:07:11;3.33;;;1.93;;
4377;SDS011;2203;53.686;9.994;2022-12-29T05:09:37;3.13;;;1.60;;
4377;SDS011;2203;53.686;9.994;2022-12-29T05:12:02;2.40;;;1.80;;
4377;SDS011;2203;53.686;9.994;2022-12-29T05:14:28;3.70;;;1.83;;
4377;SDS011;2203;53.686;9.994;2022-12-29T05:16:53;3.30;;;1.80;;
4377;SDS011;2203;53.686;9.994;2022-12-29T05:19:18;1.57;;;1.20;;
4377;SDS011;2203;53.686;9.994;2022-12-29T05:21:44;1.40;;;1.30;;
4377;SDS011;2203;53.686;9.994;2022-12-29T05:24:09;1.50;;;1.23;;
4377;SDS011;2203;53.686;9.994;2022-12-29T05:26:35;1.23;;;1.13;;
4377;SDS011;2203;53.686;9.994;2022-12-29T05:29:00;2.00;;;1.50;;
4377;SDS011;2203;53.686;9.994;2022-12-29T05:31:26;1.97;;;1.20;;
4377;SDS011;2203;53.686;9.994;2022-12-29T05:33:51;2.80;;;1.40;;
4377;SDS011;2203;53.686;9.994;2022-12-29T05:36:17;1.50;;;1.40;;
4377;SDS011;2203;53.686;9.994;2022-12-29T05:38:42;1.70;;;1.47;;
4377;SDS011;2203;53.686;9.994;2022-12-29T05:41:08;2.17;;;1.43;;
4377;SDS011;2203;53.686;9.994;2022-12-29T05:43:33;1.60;;;1.40;;
4377;SDS011;2203;53.686;9.994;2022-12-29T05:45:58;1.90;;;1.73;;
4377;SDS011;2203;53.686;9.994;2022-12-29T05:48:24;4.33;;;1.80;;
4377;SDS011;2203;53.686;9.994;2022-12-29T05:50:50;3.37;;;1.80;;
4377;SDS011;2203;53.686;9.994;2022-12-29T05:53:16;2.23;;;2.10;;
4377;SDS011;2203;53.686;9.994;2022-12-29T05:55:42;6.33;;;2.17;;
4377;SDS011;2203;53.686;9.994;2022-12-29T05:58:08;2.33;;;2.10;;
4377;SDS011;2203;53.686;9.994;2022-12-29T06:00:33;2.10;;;1.80;;
4377;SDS011;2203;53.686;9.994;2022-12-29T06:02:59;2.90;;;1.80;;
4377;SDS011;2203;53.686;9.994;2022-12-29T06:05:24;3.40;;;1.70;;
4377;SDS011;2203;53.686;9.994;2022-12-29T06:07:49;2.00;;;1.90;;
4377;SDS011;2203;53.686;9.994;2022-12-29T06:10:15;1.73;;;1.63;;
4377;SDS011;2203;53.686;9.994;2022-12-29T06:12:40;2.30;;;1.40;;
4377;SDS011;2203;53.686;9.994;2022-12-29T06:15:06;5.20;;;1.53;;
4377;SDS011;2203;53.686;9.994;2022-12-29T06:17:31;5.13;;;1.60;;
4377;SDS011;2203;53.686;9.994;2022-12-29T06:19:57;3.53;;;1.47;;
4377;SDS011;2203;53.686;9.994;2022-12-29T06:22:23;1.63;;;1.50;;
4377;SDS011;2203;53.686;9.994;2022-12-29T06:24:48;3.30;;;1.40;;
4377;SDS011;2203;53.686;9.994;2022-12-29T06:27:14;2.20;;;1.47;;
4377;SDS011;2203;53.686;9.994;2022-12-29T06:29:39;3.70;;;1.30;;
4377;SDS011;2203;53.686;9.994;2022-12-29T06:32:05;1.70;;;1.33;;
4377;SDS011;2203;53.686;9.994;2022-12-29T06:34:31;1.30;;;1.20;;
4377;SDS011;2203;53.686;9.994;2022-12-29T06:36:56;1.20;;;1.10;;
4377;SDS011;2203;53.686;9.994;2022-12-29T06:39:22;6.70;;;1.90;;
4377;SDS011;2203;53.686;9.994;2022-12-29T06:41:47;3.47;;;1.50;;
4377;SDS011;2203;53.686;9.994;2022-12-29T06:44:13;3.87;;;1.10;;
4377;SDS011;2203;53.686;9.994;2022-12-29T06:46:38;1.50;;;1.40;;
4377;SDS011;2203;53.686;9.994;2022-12-29T06:49:03;2.37;;;1.37;;
4377;SDS011;2203;53.686;9.994;2022-12-29T06:51:29;5.57;;;1.37;;
4377;SDS011;2203;53.686;9.994;2022-12-29T06:53:54;1.30;;;1.20;;
4377;SDS011;2203;53.686;9.994;2022-12-29T06:56:20;3.37;;;1.40;;
4377;SDS011;2203;53.686;9.994;2022-12-29T06:58:45;1.20;;;1.10;;
4377;SDS011;2203;53.686;9.994;2022-12-29T07:01:10;6.37;;;1.57;;
4377;SDS011;2203;53.686;9.994;2022-12-29T07:03:36;3.20;;;1.13;;
4377;SDS011;2203;53.686;9.994;2022-12-29T07:06:01;1.50;;;1.40;;
4377;SDS011;2203;53.686;9.994;2022-12-29T07:08:27;2.10;;;1.30;;
4377;SDS011;2203;53.686;9.994;2022-12-29T07:10:52;1.23;;;1.13;;
4377;SDS011;2203;53.686;9.994;2022-12-29T07:13:18;7.90;;;1.30;;
4377;SDS011;2203;53.686;9.994;2022-12-29T07:15:43;1.83;;;1.27;;
4377;SDS011;2203;53.686;9.994;2022-12-29T07:18:09;1.30;;;1.13;;
4377;SDS011;2203;53.686;9.994;2022-12-29T07:20:34;3.80;;;1.30;;
4377;SDS011;2203;53.686;9.994;2022-12-29T07:23:02;3.43;;;1.30;;
4377;SDS011;2203;53.686;9.994;2022-12-29T07:25:28;1.53;;;1.30;;
4377;SDS011;2203;53.686;9.994;2022-12-29T07:27:54;3.37;;;1.00;;
4377;SDS011;2203;53.686;9.994;2022-12-29T07:30:19;2.07;;;1.20;;
4377;SDS011;2203;53.686;9.994;2022-12-29T07:32:45;5.50;;;1.63;;
4377;SDS011;2203;53.686;9.994;2022-12-29T07:35:10;1.47;;;1.20;;
4377;SDS011;2203;53.686;9.994;2022-12-29T07:37:36;1.70;;;1.27;;
4377;SDS011;2203;53.686;9.994;2022-12-29T07:40:01;1.60;;;1.27;;
4377;SDS011;2203;53.686;9.994;2022-12-29T07:42:28;2.40;;;1.50;;
4377;SDS011;2203;53.686;9.994;2022-12-29T07:44:53;1.63;;;1.23;;
4377;SDS011;2203;53.686;9.994;2022-12-29T07:47:19;1.83;;;1.20;;
4377;SDS011;2203;53.686;9.994;2022-12-29T07:49:44;4.00;;;1.20;;
4377;SDS011;2203;53.686;9.994;2022-12-29T07:52:09;4.53;;;1.10;;
4377;SDS011;2203;53.686;9.994;2022-12-29T07:54:35;6.80;;;1.23;;
4377;SDS011;2203;53.686;9.994;2022-12-29T07:57:00;1.73;;;1.23;;
4377;SDS011;2203;53.686;9.994;2022-12-29T07:59:26;1.47;;;1.23;;
4377;SDS011;2203;53.686;9.994;2022-12-29T08:01:51;5.23;;;1.40;;
4377;SDS011;2203;53.686;9.994;2022-12-29T08:04:17;4.30;;;1.70;;
4377;SDS011;2203;53.686;9.994;2022-12-29T08:06:42;2.10;;;1.20;;
4377;SDS011;2203;53.686;9.994;2022-12-29T08:09:08;1.70;;;1.27;;
4377;SDS011;2203;53.686;9.994;2022-12-29T08:11:33;4.20;;;1.40;;
4377;SDS011;2203;53.686;9.994;2022-12-29T08:13:59;2.47;;;1.30;;
4377;SDS011;2203;53.686;9.994;2022-12-29T08:16:24;4.80;;;1.63;;
4377;SDS011;2203;53.686;9.994;2022-12-29T08:18:49;7.47;;;1.70;;
4377;SDS011;2203;53.686;9.994;2022-12-29T08:21:15;2.80;;;1.30;;
4377;SDS011;2203;53.686;9.994;2022-12-29T08:23:40;11.30;;;0.97;;
4377;SDS011;2203;53.686;9.994;2022-12-29T08:26:05;5.03;;;1.40;;
4377;SDS011;2203;53.686;9.994;2022-12-29T08:28:31;5.40;;;1.43;;
4377;SDS011;2203;53.686;9.994;2022-12-29T08:30:58;2.30;;;1.00;;
4377;SDS011;2203;53.686;9.994;2022-12-29T08:33:24;2.93;;;1.03;;
4377;SDS011;2203;53.686;9.994;2022-12-29T08:35:50;0.90;;;0.70;;
4377;SDS011;2203;53.686;9.994;2022-12-29T08:38:16;2.03;;;0.80;;
4377;SDS011;2203;53.686;9.994;2022-12-29T08:40:41;4.27;;;0.80;;
4377;SDS011;2203;53.686;9.994;2022-12-29T08:43:06;2.07;;;1.53;;
4377;SDS011;2203;53.686;9.994;2022-12-29T08:45:32;2.60;;;0.73;;
4377;SDS011;2203;53.686;9.994;2022-12-29T08:47:57;5.17;;;3.23;;
4377;SDS011;2203;53.686;9.994;2022-12-29T08:50:23;3.97;;;1.10;;
4377;SDS011;2203;53.686;9.994;2022-12-29T08:52:48;1.87;;;0.90;;
4377;SDS011;2203;53.686;9.994;2022-12-29T08:55:13;3.33;;;1.10;;
4377;SDS011;2203;53.686;9.994;2022-12-29T08:57:39;4.17;;;1.23;;
4377;SDS011;2203;53.686;9.994;2022-12-29T09:00:04;1.47;;;1.20;;
4377;SDS011;2203;53.686;9.994;2022-12-29T09:02:31;5.33;;;1.20;;
4377;SDS011;2203;53.686;9.994;2022-12-29T09:04:56;5.53;;;1.43;;
4377;SDS011;2203;53.686;9.994;2022-12-29T09:07:22;2.67;;;1.07;;
4377;SDS011;2203;53.686;9.994;2022-12-29T09:09:48;2.80;;;1.23;;
4377;SDS011;2203;53.686;9.994;2022-12-29T09:12:15;2.53;;;1.03;;
4377;SDS011;2203;53.686;9.994;2022-12-29T09:14:41;4.80;;;1.30;;
4377;SDS011;2203;53.686;9.994;2022-12-29T09:17:08;2.70;;;0.97;;
4377;SDS011;2203;53.686;9.994;2022-12-29T09:19:52;2.60;;;1.20;;
4377;SDS011;2203;53.686;9.994;2022-12-29T09:22:18;4.30;;;1.23;;
4377;SDS011;2203;53.686;9.994;2022-12-29T09:24:46;3.23;;;1.57;;
4377;SDS011;2203;53.686;9.994;2022-12-29T09:27:11;4.20;;;2.30;;
4377;SDS011;2203;53.686;9.994;2022-12-29T09:29:37;8.50;;;2.70;;
4377;SDS011;2203;53.686;9.994;2022-12-29T09:32:03;10.90;;;1.50;;
4377;SDS011;2203;53.686;9.994;2022-12-29T09:34:28;5.90;;;1.43;;
4377;SDS011;2203;53.686;9.994;2022-12-29T09:36:54;4.33;;;1.20;;
4377;SDS011;2203;53.686;9.994;2022-12-29T09:39:21;4.50;;;1.07;;
4377;SDS011;2203;53.686;9.994;2022-12-29T09:47:16;7.47;;;1.67;;
4377;SDS011;2203;53.686;9.994;2022-12-29T09:49:56;4.10;;;1.33;;
4377;SDS011;2203;53.686;9.994;2022-12-29T09:52:47;6.53;;;1.63;;
4377;SDS011;2203;53.686;9.994;2022-12-29T09:55:16;6.40;;;1.33;;
4377;SDS011;2203;53.686;9.994;2022-12-29T09:57:54;5.50;;;1.73;;
4377;SDS011;2203;53.686;9.994;2022-12-29T10:00:23;5.03;;;1.43;;
4377;SDS011;2203;53.686;9.994;2022-12-29T10:02:59;3.97;;;1.23;;
4377;SDS011;2203;53.686;9.994;2022-12-29T10:08:07;4.57;;;1.30;;
4377;SDS011;2203;53.686;9.994;2022-12-29T10:10:38;7.43;;;1.70;;
4377;SDS011;2203;53.686;9.994;2022-12-29T10:16:01;3.40;;;1.20;;
4377;SDS011;2203;53.686;9.994;2022-12-29T10:23:48;7.73;;;2.07;;
4377;SDS011;2203;53.686;9.994;2022-12-29T10:26:17;4.70;;;1.50;;
4377;SDS011;2203;53.686;9.994;2022-12-29T10:28:48;8.07;;;1.50;;
4377;SDS011;2203;53.686;9.994;2022-12-29T10:31:25;6.53;;;1.00;;
4377;SDS011;2203;53.686;9.994;2022-12-29T10:33:56;7.60;;;3.50;;
4377;SDS011;2203;53.686;9.994;2022-12-29T10:36:35;9.63;;;1.73;;
4377;SDS011;2203;53.686;9.994;2022-12-29T10:44:38;10.27;;;1.83;;
4377;SDS011;2203;53.686;9.994;2022-12-29T10:47:06;2.70;;;1.00;;
4377;SDS011;2203;53.686;9.994;2022-12-29T10:49:35;12.70;;;1.50;;
4377;SDS011;2203;53.686;9.994;2022-12-29T10:52:03;5.20;;;1.30;;
4377;SDS011;2203;53.686;9.994;2022-12-29T10:57:00;13.37;;;1.83;;
4377;SDS011;2203;53.686;9.994;2022-12-29T10:59:55;3.90;;;1.33;;
4377;SDS011;2203;53.686;9.994;2022-12-29T11:02:36;3.37;;;1.23;;
4377;SDS011;2203;53.686;9.994;2022-12-29T11:05:23;7.80;;;1.80;;
4377;SDS011;2203;53.686;9.994;2022-12-29T11:07:56;12.13;;;1.60;;
4377;SDS011;2203;53.686;9.994;2022-12-29T11:10:34;10.83;;;2.40;;
4377;SDS011;2203;53.686;9.994;2022-12-29T11:13:10;6.30;;;1.50;;
4377;SDS011;2203;53.686;9.994;2022-12-29T11:15:44;5.37;;;1.40;;
4377;SDS011;2203;53.686;9.994;2022-12-29T11:18:18;9.20;;;2.07;;
4377;SDS011;2203;53.686;9.994;2022-12-29T11:20:46;11.00;;;1.77;;
4377;SDS011;2203;53.686;9.994;2022-12-29T11:23:54;8.47;;;1.70;;
4377;SDS011;2203;53.686;9.994;2022-12-29T11:26:16;7.90;;;1.73;;
4377;SDS011;2203;53.686;9.994;2022-12-29T11:28:45;8.70;;;1.30;;
4377;SDS011;2203;53.686;9.994;2022-12-29T11:31:15;11.20;;;1.77;;
4377;SDS011;2203;53.686;9.994;2022-12-29T11:33:42;13.37;;;2.13;;
4377;SDS011;2203;53.686;9.994;2022-12-29T11:36:10;5.33;;;1.67;;
4377;SDS011;2203;53.686;9.994;2022-12-29T11:38:37;11.63;;;1.73;;
4377;SDS011;2203;53.686;9.994;2022-12-29T11:41:05;19.30;;;1.70;;
4377;SDS011;2203;53.686;9.994;2022-12-29T11:43:31;11.10;;;1.57;;
4377;SDS011;2203;53.686;9.994;2022-12-29T11:45:59;8.90;;;1.60;;
4377;SDS011;2203;53.686;9.994;2022-12-29T11:48:28;10.80;;;1.77;;
4377;SDS011;2203;53.686;9.994;2022-12-29T11:50:57;3.90;;;1.10;;
4377;SDS011;2203;53.686;9.994;2022-12-29T11:55:55;7.93;;;1.43;;
4377;SDS011;2203;53.686;9.994;2022-12-29T11:58:28;4.77;;;1.20;;
4377;SDS011;2203;53.686;9.994;2022-12-29T12:00:54;8.63;;;1.43;;
4377;SDS011;2203;53.686;9.994;2022-12-29T12:03:22;3.80;;;1.23;;
4377;SDS011;2203;53.686;9.994;2022-12-29T12:06:01;3.33;;;1.40;;
4377;SDS011;2203;53.686;9.994;2022-12-29T12:08:37;8.87;;;2.10;;
4377;SDS011;2203;53.686;9.994;2022-12-29T12:16:32;6.23;;;1.00;;
4377;SDS011;2203;53.686;9.994;2022-12-29T12:21:57;8.53;;;1.77;;
4377;SDS011;2203;53.686;9.994;2022-12-29T12:24:34;4.43;;;1.23;;
4377;SDS011;2203;53.686;9.994;2022-12-29T12:27:23;16.20;;;1.13;;
4377;SDS011;2203;53.686;9.994;2022-12-29T12:35:34;5.80;;;1.10;;
4377;SDS011;2203;53.686;9.994;2022-12-29T12:43:39;9.53;;;1.67;;
4377;SDS011;2203;53.686;9.994;2022-12-29T12:49:11;10.60;;;1.60;;
4377;SDS011;2203;53.686;9.994;2022-12-29T13:00:20;9.43;;;1.23;;
4377;SDS011;2203;53.686;9.994;2022-12-29T13:05:37;9.40;;;1.53;;
4377;SDS011;2203;53.686;9.994;2022-12-29T13:22:05;9.03;;;1.50;;
4377;SDS011;2203;53.686;9.994;2022-12-29T13:30:17;10.57;;;1.97;;
4377;SDS011;2203;53.686;9.994;2022-12-29T13:38:12;3.27;;;1.10;;
4377;SDS011;2203;53.686;9.994;2022-12-29T13:41:07;18.53;;;2.10;;
4377;SDS011;2203;53.686;9.994;2022-12-29T13:43:35;12.53;;;2.57;;
4377;SDS011;2203;53.686;9.994;2022-12-29T13:46:06;14.17;;;2.17;;
4377;SDS011;2203;53.686;9.994;2022-12-29T13:48:36;7.17;;;1.60;;
4377;SDS011;2203;53.686;9.994;2022-12-29T13:51:04;14.10;;;2.27;;
4377;SDS011;2203;53.686;9.994;2022-12-29T14:01:58;8.47;;;1.97;;
4377;SDS011;2203;53.686;9.994;2022-12-29T14:04:28;9.87;;;2.50;;
4377;SDS011;2203;53.686;9.994;2022-12-29T14:07:13;10.67;;;1.70;;
4377;SDS011;2203;53.686;9.994;2022-12-29T14:09:42;5.33;;;1.37;;
4377;SDS011;2203;53.686;9.994;2022-12-29T14:12:35;13.27;;;1.57;;
4377;SDS011;2203;53.686;9.994;2022-12-29T14:15:13;5.83;;;1.17;;
4377;SDS011;2203;53.686;9.994;2022-12-29T14:17:45;9.47;;;1.23;;
4377;SDS011;2203;53.686;9.994;2022-12-29T14:20:27;5.97;;;1.47;;
4377;SDS011;2203;53.686;9.994;2022-12-29T14:28:23;5.83;;;1.47;;
4377;SDS011;2203;53.686;9.994;2022-12-29T14:30:53;8.00;;;1.43;;
4377;SDS011;2203;53.686;9.994;2022-12-29T14:33:20;6.07;;;1.17;;
4377;SDS011;2203;53.686;9.994;2022-12-29T14:35:47;4.57;;;1.37;;
4377;SDS011;2203;53.686;9.994;2022-12-29T14:38:18;3.73;;;1.17;;
4377;SDS011;2203;53.686;9.994;2022-12-29T14:40:44;6.30;;;1.63;;
4377;SDS011;2203;53.686;9.994;2022-12-29T14:43:11;8.87;;;1.40;;
4377;SDS011;2203;53.686;9.994;2022-12-29T14:45:38;8.37;;;2.83;;
4377;SDS011;2203;53.686;9.994;2022-12-29T14:49:08;7.73;;;1.67;;
4377;SDS011;2203;53.686;9.994;2022-12-29T14:51:17;7.67;;;1.57;;
4377;SDS011;2203;53.686;9.994;2022-12-29T14:53:51;8.43;;;2.10;;
4377;SDS011;2203;53.686;9.994;2022-12-29T14:56:18;5.33;;;1.40;;
4377;SDS011;2203;53.686;9.994;2022-12-29T15:01:42;6.00;;;1.40;;
4377;SDS011;2203;53.686;9.994;2022-12-29T15:06:45;7.70;;;1.60;;
4377;SDS011;2203;53.686;9.994;2022-12-29T15:12:06;4.87;;;1.87;;
4377;SDS011;2203;53.686;9.994;2022-12-29T15:14:52;9.87;;;1.50;;
4377;SDS011;2203;53.686;9.994;2022-12-29T15:17:32;9.43;;;2.40;;
4377;SDS011;2203;53.686;9.994;2022-12-29T15:19:59;14.70;;;4.50;;
4377;SDS011;2203;53.686;9.994;2022-12-29T15:22:26;10.03;;;2.07;;
4377;SDS011;2203;53.686;9.994;2022-12-29T15:24:53;7.70;;;1.43;;
4377;SDS011;2203;53.686;9.994;2022-12-29T15:27:21;14.77;;;1.80;;
4377;SDS011;2203;53.686;9.994;2022-12-29T15:29:52;19.47;;;3.63;;
4377;SDS011;2203;53.686;9.994;2022-12-29T15:32:22;9.40;;;2.47;;
4377;SDS011;2203;53.686;9.994;2022-12-29T15:34:53;9.00;;;1.80;;
4377;SDS011;2203;53.686;9.994;2022-12-29T15:37:21;8.33;;;1.83;;
4377;SDS011;2203;53.686;9.994;2022-12-29T15:39:49;11.43;;;2.13;;
4377;SDS011;2203;53.686;9.994;2022-12-29T15:42:18;11.20;;;1.87;;
4377;SDS011;2203;53.686;9.994;2022-12-29T15:44:46;6.87;;;1.57;;
4377;SDS011;2203;53.686;9.994;2022-12-29T15:47:12;6.43;;;1.60;;
4377;SDS011;2203;53.686;9.994;2022-12-29T15:49:41;14.37;;;2.17;;
4377;SDS011;2203;53.686;9.994;2022-12-29T15:52:07;14.67;;;4.13;;
4377;SDS011;2203;53.686;9.994;2022-12-29T15:54:33;9.60;;;1.80;;
4377;SDS011;2203;53.686;9.994;2022-12-29T15:56:59;10.43;;;1.50;;
4377;SDS011;2203;53.686;9.994;2022-12-29T15:59:29;9.23;;;2.90;;
4377;SDS011;2203;53.686;9.994;2022-12-29T16:01:56;13.20;;;1.87;;
4377;SDS011;2203;53.686;9.994;2022-12-29T16:04:22;13.67;;;2.07;;
4377;SDS011;2203;53.686;9.994;2022-12-29T16:06:57;7.03;;;2.00;;
4377;SDS011;2203;53.686;9.994;2022-12-29T16:09:33;15.53;;;1.83;;
4377;SDS011;2203;53.686;9.994;2022-12-29T16:12:13;15.83;;;2.57;;
4377;SDS011;2203;53.686;9.994;2022-12-29T16:14:42;11.33;;;2.17;;
4377;SDS011;2203;53.686;9.994;2022-12-29T16:17:14;13.37;;;2.33;;
4377;SDS011;2203;53.686;9.994;2022-12-29T16:19:47;11.87;;;2.07;;
4377;SDS011;2203;53.686;9.994;2022-12-29T16:22:17;12.17;;;2.43;;
4377;SDS011;2203;53.686;9.994;2022-12-29T16:25:04;7.73;;;2.10;;
4377;SDS011;2203;53.686;9.994;2022-12-29T16:27:39;15.10;;;2.67;;
4377;SDS011;2203;53.686;9.994;2022-12-29T16:30:07;12.70;;;2.40;;
4377;SDS011;2203;53.686;9.994;2022-12-29T16:32:46;12.63;;;2.70;;
4377;SDS011;2203;53.686;9.994;2022-12-29T16:35:28;15.27;;;2.20;;
4377;SDS011;2203;53.686;9.994;2022-12-29T16:38:19;15.73;;;2.10;;
4377;SDS011;2203;53.686;9.994;2022-12-29T16:40:59;8.47;;;3.63;;
4377;SDS011;2203;53.686;9.994;2022-12-29T16:43:33;6.97;;;2.00;;
4377;SDS011;2203;53.686;9.994;2022-12-29T16:48:26;8.67;;;2.20;;
4377;SDS011;2203;53.686;9.994;2022-12-29T16:51:02;14.47;;;3.17;;
4377;SDS011;2203;53.686;9.994;2022-12-29T16:53:32;13.50;;;2.57;;
4377;SDS011;2203;53.686;9.994;2022-12-29T16:56:02;18.87;;;3.00;;
4377;SDS011;2203;53.686;9.994;2022-12-29T16:58:30;31.67;;;8.87;;
4377;SDS011;2203;53.686;9.994;2022-12-29T17:00:59;17.03;;;6.20;;
4377;SDS011;2203;53.686;9.994;2022-12-29T17:03:27;21.13;;;3.60;;
4377;SDS011;2203;53.686;9.994;2022-12-29T17:05:59;7.97;;;2.70;;
4377;SDS011;2203;53.686;9.994;2022-12-29T17:08:25;24.33;;;3.20;;
4377;SDS011;2203;53.686;9.994;2022-12-29T17:10:54;10.40;;;3.80;;
4377;SDS011;2203;53.686;9.994;2022-12-29T17:13:39;11.43;;;2.90;;
4377;SDS011;2203;53.686;9.994;2022-12-29T17:16:05;10.00;;;2.60;;
4377;SDS011;2203;53.686;9.994;2022-12-29T17:18:32;6.30;;;2.60;;
4377;SDS011;2203;53.686;9.994;2022-12-29T17:20:58;10.47;;;2.40;;
4377;SDS011;2203;53.686;9.994;2022-12-29T17:23:23;13.27;;;3.00;;
4377;SDS011;2203;53.686;9.994;2022-12-29T17:25:49;10.17;;;2.20;;
4377;SDS011;2203;53.686;9.994;2022-12-29T17:30:45;10.73;;;2.23;;
4377;SDS011;2203;53.686;9.994;2022-12-29T17:33:15;12.77;;;4.00;;
4377;SDS011;2203;53.686;9.994;2022-12-29T17:35:41;13.93;;;3.03;;
4377;SDS011;2203;53.686;9.994;2022-12-29T17:38:20;12.70;;;3.57;;
4377;SDS011;2203;53.686;9.994;2022-12-29T17:40:46;13.83;;;2.50;;
4377;SDS011;2203;53.686;9.994;2022-12-29T17:43:12;19.27;;;3.70;;
4377;SDS011;2203;53.686;9.994;2022-12-29T17:45:39;14.27;;;2.93;;
4377;SDS011;2203;53.686;9.994;2022-12-29T17:48:09;24.63;;;3.50;;
4377;SDS011;2203;53.686;9.994;2022-12-29T17:50:36;15.23;;;4.13;;
4377;SDS011;2203;53.686;9.994;2022-12-29T17:53:03;19.40;;;3.10;;
4377;SDS011;2203;53.686;9.994;2022-12-29T17:55:30;8.57;;;3.37;;
4377;SDS011;2203;53.686;9.994;2022-12-29T17:57:56;10.90;;;3.23;;
4377;SDS011;2203;53.686;9.994;2022-12-29T18:00:25;16.37;;;3.60;;